Time;durP1;ratioP1;P1;durP2;ratioP2;P2;SDS_P1;SDS_P2;PMS_P1;PMS_P2;Temp;Humidity;BMP_temperature;BMP_pressure;BME280_temperature;BME280_humidity;BME280_pressure;Samples;Min_cycle;Max_cycle;Signal;HPM_P1;HPM_P2
2022/12/04 00:00:33;;;;;;;29.88;17.42;;;;;;;4.06;76.69;100784.63;5033781;28;20053;-67
2022/12/04 00:03:00;;;;;;;29.70;17.15;;;;;;;3.94;76.77;100780.53;5034319;28;20053;-67
2022/12/04 00:05:28;;;;;;;29.90;17.02;;;;;;;3.77;76.91;100794.34;5032346;28;20045;-68
2022/12/04 00:07:55;;;;;;;35.05;18.70;;;;;;;3.78;77.57;100790.56;5034343;28;20053;-67
2022/12/04 00:10:22;;;;;;;29.13;17.20;;;;;;;3.80;77.16;100787.56;5031205;28;20056;-67
2022/12/04 00:12:50;;;;;;;29.42;17.98;;;;;;;3.73;77.58;100787.00;5049353;28;20532;-67
2022/12/04 00:15:17;;;;;;;33.67;18.73;;;;;;;3.62;78.01;100788.03;5048548;28;20064;-68
2022/12/04 00:17:53;;;;;;;31.33;17.73;;;;;;;3.54;78.10;100775.72;5014583;28;20057;-67
2022/12/04 00:20:21;;;;;;;35.03;18.92;;;;;;;3.57;78.23;100790.72;5016368;28;20054;-68
2022/12/04 00:22:49;;;;;;;29.30;17.30;;;;;;;3.47;78.67;100779.78;5054134;28;20056;-67
2022/12/04 00:25:16;;;;;;;31.23;17.77;;;;;;;3.44;78.52;100786.56;5053375;28;20081;-67
2022/12/04 00:27:43;;;;;;;31.13;17.65;;;;;;;3.60;78.17;100782.84;5054134;28;20412;-66
2022/12/04 00:30:11;;;;;;;32.17;18.35;;;;;;;3.57;78.42;100785.28;5046432;28;20061;-67
2022/12/04 00:32:38;;;;;;;35.30;18.40;;;;;;;3.57;78.53;100788.00;5035647;28;20072;-67
2022/12/04 00:35:06;;;;;;;31.92;17.70;;;;;;;3.49;78.32;100788.53;5038014;28;20125;-68
2022/12/04 00:37:33;;;;;;;31.90;17.92;;;;;;;3.61;78.28;100787.19;5019157;28;20057;-67
2022/12/04 00:40:01;;;;;;;33.20;17.85;;;;;;;3.66;78.13;100783.69;5036656;28;20053;-68
2022/12/04 00:42:28;;;;;;;31.85;18.02;;;;;;;3.81;77.77;100776.38;5037376;28;20439;-67
2022/12/04 00:44:55;;;;;;;32.05;18.15;;;;;;;3.82;77.56;100767.13;5037837;28;20053;-66
2022/12/04 00:47:22;;;;;;;33.97;19.27;;;;;;;3.84;77.31;100766.84;5033137;28;20052;-67
2022/12/04 00:49:50;;;;;;;33.55;17.90;;;;;;;3.77;77.24;100764.38;5018040;28;20432;-66
2022/12/04 00:52:17;;;;;;;32.53;18.33;;;;;;;3.80;77.35;100765.75;5030946;28;20521;-67
2022/12/04 00:54:44;;;;;;;29.05;16.95;;;;;;;3.69;77.53;100772.25;5037694;28;20077;-67
2022/12/04 00:57:11;;;;;;;33.30;18.73;;;;;;;3.82;77.42;100771.78;5039472;28;20051;-67
2022/12/04 00:59:39;;;;;;;34.92;18.33;;;;;;;3.85;77.39;100779.41;5057526;28;20049;-68
2022/12/04 01:02:06;;;;;;;30.77;17.40;;;;;;;3.73;77.64;100778.81;5038615;28;20115;-68
2022/12/04 01:04:33;;;;;;;34.25;18.67;;;;;;;3.73;78.08;100768.72;5039101;28;20049;-67
2022/12/04 01:07:01;;;;;;;31.73;17.80;;;;;;;3.71;77.68;100764.63;5034894;28;20053;-67
2022/12/04 01:09:32;;;;;;;32.60;18.55;;;;;;;3.55;78.41;100776.56;5049360;28;20057;-67
2022/12/04 01:11:59;;;;;;;30.40;18.08;;;;;;;3.63;78.13;100776.84;5056242;28;20060;-67
2022/12/04 01:14:26;;;;;;;30.20;17.75;;;;;;;3.56;78.42;100767.31;5038901;28;20404;-67
2022/12/04 01:16:54;;;;;;;34.55;17.42;;;;;;;3.47;78.56;100774.34;5057468;28;20539;-68
2022/12/04 01:19:21;;;;;;;32.20;17.98;;;;;;;3.57;78.85;100763.50;5018171;28;20117;-67
2022/12/04 01:21:49;;;;;;;32.47;18.70;;;;;;;3.55;78.94;100774.66;5031628;28;20072;-67
2022/12/04 01:24:16;;;;;;;33.78;18.65;;;;;;;3.48;78.96;100765.91;5022660;28;20041;-67
2022/12/04 01:26:43;;;;;;;34.15;18.55;;;;;;;3.67;78.78;100758.91;5038095;28;20052;-67
2022/12/04 01:29:10;;;;;;;32.55;17.65;;;;;;;3.77;78.36;100755.38;5056511;28;20057;-67
2022/12/04 01:31:38;;;;;;;32.13;18.25;;;;;;;3.68;78.25;100765.97;5056196;28;20049;-67
2022/12/04 01:34:05;;;;;;;33.33;18.88;;;;;;;3.57;78.73;100763.50;5055569;28;20052;-67
2022/12/04 01:36:32;;;;;;;33.88;19.45;;;;;;;3.55;79.03;100752.88;5056241;28;20674;-69
2022/12/04 01:39:00;;;;;;;34.03;18.45;;;;;;;3.46;79.05;100759.91;5055413;28;20052;-67
2022/12/04 01:41:29;;;;;;;34.88;19.48;;;;;;;3.35;79.62;100763.66;5056032;28;20056;-68
2022/12/04 01:44:14;;;;;;;36.90;20.83;;;;;;;3.50;79.55;100765.63;5052143;28;20052;-68
2022/12/04 01:46:55;;;;;;;36.75;18.40;;;;;;;3.48;79.47;100760.47;5048583;28;20057;-67
2022/12/04 01:49:48;;;;;;;35.42;19.63;;;;;;;3.42;79.63;100767.78;5019045;28;20054;-67
2022/12/04 01:52:22;;;;;;;34.92;19.45;;;;;;;3.45;80.17;100771.91;5049224;28;20064;-67
2022/12/04 01:54:53;;;;;;;35.45;20.17;;;;;;;3.63;79.28;100768.69;5038357;28;20487;-67
2022/12/04 01:57:22;;;;;;;35.03;19.83;;;;;;;3.71;79.42;100765.47;5037961;28;20048;-67
2022/12/04 02:00:01;;;;;;;36.47;20.13;;;;;;;3.62;78.62;100771.69;5055200;28;20056;-67
2022/12/04 02:02:39;;;;;;;37.30;19.92;;;;;;;3.72;78.97;100769.00;5054174;28;20048;-67
2022/12/04 02:05:10;;;;;;;38.75;20.55;;;;;;;3.49;78.91;100778.44;5055023;28;20049;-67
2022/12/04 02:07:38;;;;;;;36.38;20.60;;;;;;;3.54;79.36;100767.56;5037355;28;20071;-68
2022/12/04 02:10:07;;;;;;;39.95;21.27;;;;;;;3.67;78.90;100761.63;5055984;28;20068;-67
2022/12/04 02:12:42;;;;;;;38.38;21.73;;;;;;;3.62;78.93;100760.78;5054856;28;20101;-68
2022/12/04 02:15:26;;;;;;;37.85;21.42;;;;;;;3.63;79.07;100765.16;5021894;28;20114;-68
2022/12/04 02:18:00;;;;;;;41.30;22.48;;;;;;;3.69;78.82;100764.91;4998786;28;20462;-68
2022/12/04 02:20:49;;;;;;;38.75;21.05;;;;;;;3.76;78.52;100762.75;5000641;28;20062;-68
2022/12/04 02:23:40;;;;;;;39.90;22.33;;;;;;;3.78;78.43;100757.88;5035648;28;20061;-67
2022/12/04 02:26:27;;;;;;;38.95;21.83;;;;;;;3.87;78.32;100767.13;5050904;28;20311;-67
2022/12/04 02:29:31;;;;;;;38.85;22.05;;;;;;;4.14;77.43;100769.66;5036085;28;20045;-68
2022/12/04 02:32:18;;;;;;;36.15;21.20;;;;;;;3.80;77.67;100768.50;5024509;28;20053;-67
2022/12/04 02:35:15;;;;;;;38.40;21.27;;;;;;;3.86;77.85;100751.06;4982387;28;20413;-68
2022/12/04 02:37:45;;;;;;;39.78;21.85;;;;;;;3.88;78.19;100759.78;5020405;28;20057;-68
2022/12/04 02:40:24;;;;;;;39.75;21.52;;;;;;;3.88;77.97;100754.34;4998187;28;20049;-67
2022/12/04 02:42:54;;;;;;;43.13;22.10;;;;;;;3.76;77.83;100760.03;4997767;28;20054;-67
2022/12/04 02:45:47;;;;;;;38.30;21.65;;;;;;;3.67;78.31;100760.81;5033012;28;20053;-68
2022/12/04 02:48:18;;;;;;;41.72;22.45;;;;;;;3.70;78.45;100762.97;5003478;28;20054;-67
2022/12/04 02:50:48;;;;;;;37.55;21.90;;;;;;;3.66;78.37;100757.25;5020548;28;20515;-67
2022/12/04 02:53:18;;;;;;;39.13;22.48;;;;;;;3.64;78.63;100761.34;5037172;28;20052;-68
2022/12/04 02:55:47;;;;;;;;;;;;;;;3.64;78.80;100764.91;5054959;28;20049;-67
2022/12/04 02:58:25;;;;;;;40.33;22.58;;;;;;;3.72;78.44;100766.25;5053642;28;19927;-68
2022/12/04 03:00:54;;;;;;;39.17;22.23;;;;;;;3.74;78.42;100766.81;5036806;28;20052;-66
2022/12/04 03:03:24;;;;;;;40.83;22.45;;;;;;;3.67;78.58;100768.97;5025201;28;20057;-66
2022/12/04 03:05:55;;;;;;;38.88;21.67;;;;;;;3.70;78.58;100757.53;5018837;28;20041;-67
2022/12/04 03:08:26;;;;;;;37.45;22.23;;;;;;;3.70;78.41;100752.09;5033729;28;20057;-67
2022/12/04 03:10:57;;;;;;;40.17;23.38;;;;;;;3.70;78.26;100752.91;5003000;28;20056;-67
2022/12/04 03:13:47;;;;;;;40.72;22.38;;;;;;;3.63;78.61;100744.16;5020823;28;20049;-67
2022/12/04 03:16:18;;;;;;;38.38;21.52;;;;;;;3.73;78.50;100746.94;5023219;28;20045;-67
2022/12/04 03:18:49;;;;;;;39.83;23.20;;;;;;;3.83;78.28;100740.69;5016872;28;20072;-67
2022/12/04 03:21:19;;;;;;;37.83;22.27;;;;;;;3.87;77.74;100739.09;5038152;28;20057;-67
2022/12/04 03:23:50;;;;;;;41.95;23.08;;;;;;;4.03;77.55;100741.56;5016608;28;20076;-66
2022/12/04 03:26:36;;;;;;;38.47;21.30;;;;;;;3.76;77.82;100749.13;5028122;28;20515;-67
2022/12/04 03:29:11;;;;;;;40.13;22.45;;;;;;;3.74;78.15;100743.13;5032812;28;20093;-67
2022/12/04 03:31:42;;;;;;;38.28;21.63;;;;;;;3.69;78.27;100736.84;5036078;28;20061;-67
2022/12/04 03:34:12;;;;;;;38.65;22.35;;;;;;;3.69;78.66;100728.69;5036576;28;20052;-67
2022/12/04 03:36:46;;;;;;;42.92;23.58;;;;;;;3.80;78.12;100731.16;5036140;28;20064;-68
2022/12/04 03:39:18;;;;;;;41.42;22.25;;;;;;;3.73;78.47;100733.31;5054165;28;20092;-67
2022/12/04 03:42:20;;;;;;;38.33;22.13;;;;;;;3.85;78.56;100730.38;5054198;28;20052;-67
2022/12/04 03:45:03;;;;;;;41.25;22.77;;;;;;;3.91;78.19;100727.38;5012159;28;20061;-67
2022/12/04 03:47:37;;;;;;;39.42;22.40;;;;;;;3.84;77.85;100731.44;5032542;28;20056;-67
2022/12/04 03:50:10;;;;;;;39.45;22.48;;;;;;;3.75;78.24;100722.97;4997151;28;20060;-67
2022/12/04 03:53:07;;;;;;;36.58;21.85;;;;;;;3.77;78.39;100718.06;5035687;28;20064;-67
2022/12/04 03:55:46;;;;;;;37.20;21.00;;;;;;;4.04;77.57;100709.69;5036150;28;20415;-67
2022/12/04 03:58:18;;;;;;;38.42;21.83;;;;;;;3.96;77.61;100707.47;5036144;28;20041;-67
2022/12/04 04:00:48;;;;;;;37.70;21.30;;;;;;;3.66;78.30;100704.72;5036226;28;20087;-68
2022/12/04 04:03:28;;;;;;;36.50;21.77;;;;;;;3.63;78.34;100680.75;5020141;28;20132;-67
2022/12/04 04:06:01;;;;;;;39.13;22.10;;;;;;;3.36;79.34;100676.28;5019914;28;20104;-67
2022/12/04 04:08:33;;;;;;;39.28;22.75;;;;;;;3.32;80.08;100672.47;5038905;28;20053;-66
2022/12/04 04:11:10;;;;;;;40.85;22.98;;;;;;;3.38;79.98;100660.50;5036437;28;20049;-68
2022/12/04 04:24:58;;;;;;;36.33;21.00;;;;;;;3.69;78.70;100652.41;5038061;28;20052;-68
2022/12/04 04:27:26;;;;;;;35.88;20.83;;;;;;;3.74;78.29;100663.31;5004512;28;20057;-67
2022/12/04 04:29:53;;;;;;;38.35;21.88;;;;;;;3.74;77.98;100671.47;5041286;28;20047;-67
2022/12/04 04:32:41;;;;;;;35.53;21.10;;;;;;;3.67;78.70;100679.09;5057178;28;20480;-66
2022/12/04 04:35:20;;;;;;;36.17;21.58;;;;;;;3.65;78.38;100684.81;5057695;28;20504;-66
2022/12/04 04:37:57;;;;;;;40.42;23.58;;;;;;;3.70;78.71;100678.53;5039486;28;20075;-67
2022/12/04 04:40:29;;;;;;;36.97;21.98;;;;;;;3.73;78.32;100670.66;5057078;28;20040;-68
2022/12/04 04:43:26;;;;;;;38.65;21.80;;;;;;;3.79;78.11;100669.59;5056051;28;20041;-67
2022/12/04 04:45:57;;;;;;;38.75;22.17;;;;;;;3.74;78.60;100660.59;5021691;28;20061;-67
2022/12/04 04:48:29;;;;;;;38.92;22.60;;;;;;;3.77;78.21;100671.75;5030149;28;20077;-68
2022/12/04 04:50:57;;;;;;;38.50;21.83;;;;;;;3.78;78.40;100670.69;5006255;28;20528;-68
2022/12/04 04:53:29;;;;;;;38.60;23.27;;;;;;;3.87;77.60;100665.53;5019056;28;20113;-68
2022/12/04 04:55:57;;;;;;;38.47;23.13;;;;;;;3.73;77.79;100676.09;5025405;28;20048;-67
2022/12/04 04:58:24;;;;;;;36.90;22.33;;;;;;;3.79;78.20;100676.94;5038908;28;20057;-68
2022/12/04 05:01:12;;;;;;;36.42;22.83;;;;;;;3.80;78.36;100665.78;5039062;28;20041;-67
2022/12/04 05:03:41;;;;;;;38.63;23.20;;;;;;;3.84;78.36;100660.59;5057111;28;20041;-68
2022/12/04 05:06:08;;;;;;;39.95;22.50;;;;;;;4.00;77.50;100670.44;5035799;28;20056;-66
2022/12/04 05:08:35;;;;;;;36.83;21.70;;;;;;;3.95;77.03;100665.81;5042226;28;20068;-66
2022/12/04 05:11:03;;;;;;;38.88;22.73;;;;;;;3.82;77.70;100682.66;5056657;28;20044;-67
2022/12/04 05:13:31;;;;;;;39.42;22.23;;;;;;;3.84;77.66;100685.13;5055283;28;20049;-67
2022/12/04 05:16:01;;;;;;;40.08;23.15;;;;;;;3.86;77.28;100683.78;5056044;28;20107;-67
2022/12/04 05:18:29;;;;;;;39.75;22.75;;;;;;;3.81;77.56;100691.94;5022236;28;20058;-69
2022/12/04 05:20:56;;;;;;;37.08;22.27;;;;;;;3.78;78.07;100683.50;5029624;28;20049;-68
2022/12/04 05:23:24;;;;;;;38.38;21.73;;;;;;;3.81;77.52;100672.88;5055390;28;20041;-66
2022/12/04 05:25:59;;;;;;;36.33;22.23;;;;;;;3.78;77.81;100670.69;5037757;28;20060;-67
2022/12/04 05:28:26;;;;;;;36.80;22.40;;;;;;;3.71;77.92;100681.03;5056721;28;20076;-68
2022/12/04 05:30:56;;;;;;;40.55;23.23;;;;;;;3.63;78.28;100684.25;5056323;28;20056;-67
2022/12/04 05:33:23;;;;;;;40.67;23.33;;;;;;;3.75;78.56;100686.75;5056320;28;20045;-66
2022/12/04 05:36:00;;;;;;;38.33;22.52;;;;;;;3.83;78.18;100688.94;5020613;28;20060;-68
2022/12/04 05:38:28;;;;;;;41.42;23.02;;;;;;;3.93;78.02;100688.94;5056478;28;20049;-67
2022/12/04 05:41:00;;;;;;;41.45;24.42;;;;;;;4.04;77.38;100702.34;5054605;28;20051;-67
2022/12/04 05:43:27;;;;;;;42.85;23.48;;;;;;;3.87;77.41;100709.13;5055269;28;20048;-66
2022/12/04 05:46:03;;;;;;;41.38;24.42;;;;;;;3.94;78.07;100715.13;5023374;28;20080;-67
2022/12/04 05:48:30;;;;;;;38.75;22.85;;;;;;;4.04;77.23;100718.69;5040122;28;20053;-67
2022/12/04 05:50:58;;;;;;;40.35;23.42;;;;;;;4.10;77.24;100711.31;5028960;28;20045;-67
2022/12/04 05:53:25;;;;;;;46.05;22.52;;;;;;;3.99;77.12;100721.38;5038314;28;20049;-67
2022/12/04 05:55:56;;;;;;;39.92;23.73;;;;;;;4.03;77.34;100718.94;5055940;28;20495;-67
2022/12/04 05:58:24;;;;;;;43.05;24.38;;;;;;;3.99;77.43;100724.09;5056106;28;20087;-66
2022/12/04 06:00:51;;;;;;;41.30;23.92;;;;;;;4.15;76.97;100722.25;5055915;28;20511;-67
2022/12/04 06:03:18;;;;;;;41.20;24.92;;;;;;;4.12;76.68;100718.13;5054276;28;20049;-67
2022/12/04 06:05:46;;;;;;;39.83;23.80;;;;;;;4.12;76.78;100715.41;5037851;28;20045;-67
2022/12/04 06:08:13;;;;;;;40.75;22.83;;;;;;;4.16;76.63;100723.88;5054558;28;20487;-67
2022/12/04 06:10:41;;;;;;;40.97;23.95;;;;;;;4.06;77.30;100723.88;5054891;28;20532;-67
2022/12/04 06:13:08;;;;;;;41.92;24.27;;;;;;;4.18;77.07;100730.69;5054296;28;20045;-68
2022/12/04 06:15:39;;;;;;;40.60;23.63;;;;;;;4.14;76.80;100717.88;5054173;28;20049;-68
2022/12/04 06:18:06;;;;;;;44.00;24.25;;;;;;;4.06;76.80;100718.41;5045655;28;20053;-67
2022/12/04 06:20:34;;;;;;;42.03;23.75;;;;;;;4.01;77.46;100716.47;5018591;28;20484;-67
2022/12/04 06:23:01;;;;;;;45.33;24.58;;;;;;;4.21;77.29;100721.16;5035417;28;20050;-67
2022/12/04 06:25:28;;;;;;;39.95;22.73;;;;;;;4.31;76.61;100718.41;5033552;28;20057;-67
2022/12/04 06:27:56;;;;;;;43.08;24.48;;;;;;;4.42;75.93;100709.16;5035708;28;20049;-67
2022/12/04 06:30:23;;;;;;;43.60;24.25;;;;;;;4.31;76.24;100702.06;5043360;28;20059;-68
2022/12/04 06:32:50;;;;;;;42.03;24.65;;;;;;;4.29;76.16;100706.97;5037789;28;20052;-68
2022/12/04 06:35:18;;;;;;;38.33;23.45;;;;;;;4.24;76.13;100715.97;5055122;28;20484;-66
2022/12/04 06:37:45;;;;;;;40.50;23.85;;;;;;;4.21;76.98;100711.06;5037409;28;20135;-67
2022/12/04 06:40:12;;;;;;;43.08;24.63;;;;;;;4.31;76.67;100718.41;5036704;28;20076;-66
2022/12/04 06:42:39;;;;;;;41.85;24.65;;;;;;;4.29;76.49;100718.69;5055209;28;20886;-69
2022/12/04 06:45:08;;;;;;;42.00;23.73;;;;;;;4.40;76.18;100735.88;5006373;28;20060;-67
2022/12/04 06:47:35;;;;;;;46.30;25.38;;;;;;;4.52;75.54;100736.41;5034450;28;20045;-68
2022/12/04 06:50:03;;;;;;;43.08;24.75;;;;;;;4.47;75.61;100729.06;5015840;28;20053;-68
2022/12/04 06:52:32;;;;;;;40.33;24.35;;;;;;;4.51;75.58;100735.63;5035747;28;20053;-67
2022/12/04 06:55:00;;;;;;;40.07;24.10;;;;;;;4.51;75.81;100723.88;5054444;28;20060;-68
2022/12/04 06:57:27;;;;;;;44.17;24.83;;;;;;;4.57;75.24;100729.06;5036080;28;20291;-67
2022/12/04 06:59:54;;;;;;;42.60;24.45;;;;;;;4.47;75.52;100728.25;5053229;28;20061;-67
2022/12/04 07:02:22;;;;;;;43.08;24.40;;;;;;;4.40;75.99;100731.25;5020348;28;20129;-68
2022/12/04 07:04:54;;;;;;;42.08;24.67;;;;;;;4.49;75.86;100726.91;5055052;28;20499;-67
2022/12/04 07:07:22;;;;;;;41.33;25.08;;;;;;;4.30;76.16;100731.25;5036702;28;20049;-67
2022/12/04 07:09:49;;;;;;;46.60;25.23;;;;;;;4.31;76.84;100732.06;5050011;28;20495;-67
2022/12/04 07:12:17;;;;;;;40.33;23.20;;;;;;;4.44;76.42;100729.63;5054402;28;20064;-67
2022/12/04 07:14:44;;;;;;;44.42;25.42;;;;;;;4.43;76.13;100736.16;5036863;28;20060;-67
2022/12/04 07:17:11;;;;;;;46.25;25.90;;;;;;;4.41;76.48;100729.34;5054303;28;20053;-67
2022/12/04 07:19:39;;;;;;;41.70;23.75;;;;;;;4.32;76.64;100726.31;5018346;28;20053;-67
2022/12/04 07:22:07;;;;;;;39.72;24.17;;;;;;;4.37;77.26;100731.81;5026963;28;20060;-67
2022/12/04 07:24:36;;;;;;;45.55;26.67;;;;;;;4.42;76.74;100734.53;5053154;28;20493;-68
2022/12/04 07:27:03;;;;;;;46.38;26.75;;;;;;;4.49;76.68;100742.44;5054171;28;20053;-67
2022/12/04 07:29:31;;;;;;;43.67;25.08;;;;;;;4.67;75.74;100741.06;5055292;28;20060;-68
2022/12/04 07:31:58;;;;;;;45.17;25.25;;;;;;;4.66;75.42;100734.78;5054162;28;20057;-68
2022/12/04 07:34:25;;;;;;;44.97;25.70;;;;;;;4.58;75.65;100738.88;5036290;28;20045;-68
2022/12/04 07:36:52;;;;;;;48.33;26.83;;;;;;;4.51;76.39;100749.25;5054140;28;20076;-68
2022/12/04 07:39:20;;;;;;;41.92;24.65;;;;;;;4.38;76.63;100740.78;5054413;28;20390;-67
2022/12/04 07:41:47;;;;;;;42.10;25.50;;;;;;;4.56;76.23;100745.69;5054140;28;20068;-68
2022/12/04 07:44:14;;;;;;;45.80;26.15;;;;;;;4.46;76.67;100738.31;5054145;28;20052;-68
2022/12/04 07:46:41;;;;;;;47.25;26.58;;;;;;;4.64;76.58;100734.22;5036383;28;20049;-67
2022/12/04 07:49:10;;;;;;;47.45;26.88;;;;;;;4.53;76.10;100738.06;5025934;28;20073;-68
2022/12/04 07:51:37;;;;;;;48.03;28.35;;;;;;;4.44;76.71;100745.16;5038677;28;20060;-68
2022/12/04 07:54:05;;;;;;;49.67;28.52;;;;;;;4.46;76.88;100734.81;5054238;28;20049;-67
2022/12/04 07:56:33;;;;;;;47.83;27.08;;;;;;;4.37;76.88;100725.53;5052595;28;20053;-68
2022/12/04 07:59:01;;;;;;;50.65;27.02;;;;;;;4.47;76.81;100726.34;5054239;28;20063;-67
2022/12/04 08:01:28;;;;;;;49.83;27.52;;;;;;;4.42;76.91;100722.78;5053989;28;20527;-68
2022/12/04 08:03:57;;;;;;;52.78;29.10;;;;;;;4.56;76.73;100723.88;5053759;28;20063;-67
2022/12/04 08:06:26;;;;;;;49.22;28.75;;;;;;;4.71;76.49;100723.84;5053894;28;20080;-68
2022/12/04 08:08:54;;;;;;;47.30;28.00;;;;;;;4.80;76.09;100727.66;5053606;28;20060;-67
2022/12/04 08:11:23;;;;;;;48.03;27.40;;;;;;;4.72;75.96;100738.31;5036286;28;20298;-67
2022/12/04 08:14:01;;;;;;;50.15;27.95;;;;;;;4.67;76.11;100725.53;5036278;28;20048;-67
2022/12/04 08:16:30;;;;;;;51.90;29.90;;;;;;;4.88;75.80;100716.19;5053871;28;20056;-68
2022/12/04 08:18:58;;;;;;;51.55;29.70;;;;;;;4.73;75.63;100718.94;5030069;28;20048;-68
2022/12/04 08:21:28;;;;;;;52.78;29.73;;;;;;;4.57;75.99;100715.41;5034864;28;20060;-68
2022/12/04 08:23:56;;;;;;;54.63;31.85;;;;;;;4.57;76.23;100726.34;5036051;28;20056;-68
2022/12/04 08:26:27;;;;;;;57.17;31.08;;;;;;;4.57;76.30;100731.78;5053470;28;20056;-67
2022/12/04 08:28:56;;;;;;;52.30;28.77;;;;;;;4.57;76.73;100730.97;5052655;28;20064;-67
2022/12/04 08:31:25;;;;;;;54.92;30.25;;;;;;;4.43;76.93;100730.69;5053520;28;20128;-67
2022/12/04 08:33:56;;;;;;;47.95;27.52;;;;;;;4.43;76.41;100724.41;5053779;28;20053;-68
2022/12/04 08:36:24;;;;;;;50.17;29.00;;;;;;;4.59;76.23;100728.78;5035402;28;20401;-67
2022/12/04 08:38:51;;;;;;;48.58;28.00;;;;;;;4.60;76.21;100730.44;5053902;28;20079;-68
2022/12/04 08:41:21;;;;;;;49.17;28.90;;;;;;;4.71;76.24;100731.25;5052748;28;20064;-68
2022/12/04 08:43:54;;;;;;;54.22;29.80;;;;;;;4.55;76.25;100733.97;5032570;28;20397;-68
2022/12/04 08:46:23;;;;;;;49.65;28.20;;;;;;;4.61;76.41;100734.78;5043844;28;20504;-68
2022/12/04 08:48:51;;;;;;;53.13;30.45;;;;;;;4.62;76.10;100738.34;5030832;28;20049;-68
2022/12/04 08:51:21;;;;;;;48.50;28.27;;;;;;;4.58;76.12;100746.25;5013889;28;20060;-68
2022/12/04 08:53:56;;;;;;;50.97;28.98;;;;;;;4.58;76.23;100749.78;5053370;28;20727;-68
2022/12/04 08:56:25;;;;;;;55.65;28.65;;;;;;;4.58;76.54;100752.50;5038818;28;20163;-68
2022/12/04 08:58:52;;;;;;;52.05;29.75;;;;;;;4.62;76.49;100750.03;5056242;28;20045;-67
2022/12/04 09:01:19;;;;;;;54.90;30.15;;;;;;;4.67;76.11;100750.06;5055648;28;20053;-67
2022/12/04 09:03:47;;;;;;;53.30;30.88;;;;;;;4.63;76.51;100745.41;5024442;28;20405;-67
2022/12/04 09:06:15;;;;;;;54.05;29.83;;;;;;;4.68;76.12;100746.25;5037740;28;20052;-68
2022/12/04 09:08:43;;;;;;;55.45;31.02;;;;;;;4.68;76.33;100745.41;5007189;28;20053;-68
2022/12/04 09:11:16;;;;;;;55.20;30.33;;;;;;;4.76;75.95;100750.34;5039787;28;20053;-68
2022/12/04 09:13:44;;;;;;;50.45;29.83;;;;;;;4.70;76.31;100744.06;5035466;28;20489;-69
2022/12/04 09:16:14;;;;;;;53.95;30.67;;;;;;;4.81;75.84;100742.16;4998785;28;20057;-68
2022/12/04 09:18:42;;;;;;;53.33;31.00;;;;;;;4.67;76.10;100741.88;5033027;28;20046;-68
2022/12/04 09:21:11;;;;;;;53.72;28.98;;;;;;;4.84;75.72;100756.06;5039525;28;20049;-68
2022/12/04 09:23:39;;;;;;;56.57;31.17;;;;;;;4.80;75.67;100745.94;5035693;28;20054;-68
2022/12/04 09:26:21;;;;;;;57.50;30.95;;;;;;;4.85;75.38;100745.94;5036579;28;20041;-67
2022/12/04 09:28:49;;;;;;;53.70;31.55;;;;;;;4.69;75.68;100745.13;5051643;28;20057;-68
2022/12/04 09:31:17;;;;;;;51.92;29.48;;;;;;;4.69;75.96;100744.34;5038422;28;20045;-68
2022/12/04 09:33:45;;;;;;;50.42;29.23;;;;;;;4.68;76.35;100735.31;5056689;28;20045;-68
2022/12/04 09:36:15;;;;;;;52.63;29.50;;;;;;;4.79;75.89;100738.88;5055047;28;20049;-68
2022/12/04 09:38:43;;;;;;;;;;;;;;;4.92;75.92;100738.28;5057327;28;20056;-68
2022/12/04 09:41:32;;;;;;;55.70;31.75;;;;;;;4.97;75.15;100741.81;5055867;28;19921;-69
2022/12/04 09:44:05;;;;;;;52.07;29.00;;;;;;;4.79;75.31;100745.16;5033469;28;20068;-69
2022/12/04 09:46:40;;;;;;;51.40;28.42;;;;;;;4.80;75.78;100748.69;5034927;28;20053;-68
2022/12/04 09:49:19;;;;;;;51.05;28.45;;;;;;;4.82;75.41;100751.94;5028303;28;20054;-69
2022/12/04 09:51:46;;;;;;;52.50;28.83;;;;;;;4.91;75.72;100761.22;5021576;28;20053;-68
2022/12/04 09:54:17;;;;;;;52.78;29.58;;;;;;;4.92;75.20;100757.38;5036670;28;20053;-67
2022/12/04 09:56:52;;;;;;;52.55;29.13;;;;;;;4.80;75.68;100752.22;5034862;28;20061;-67
2022/12/04 09:59:23;;;;;;;52.17;29.08;;;;;;;4.94;75.17;100747.03;5034974;28;20041;-68
2022/12/04 10:01:55;;;;;;;54.35;29.50;;;;;;;4.89;75.47;100744.31;5018102;28;20443;-67
2022/12/04 10:04:22;;;;;;;49.47;27.95;;;;;;;5.03;74.79;100735.28;5035681;28;20049;-68
2022/12/04 10:07:08;;;;;;;52.58;29.58;;;;;;;4.92;75.36;100739.13;5035563;28;20049;-67
2022/12/04 10:09:43;;;;;;;50.95;28.95;;;;;;;4.73;74.79;100732.59;5044411;28;20074;-68
2022/12/04 10:12:20;;;;;;;56.38;30.27;;;;;;;4.80;75.45;100738.59;5017742;28;20080;-68
2022/12/04 10:14:50;;;;;;;50.60;29.20;;;;;;;4.99;75.35;100733.34;5018331;28;20068;-67
2022/12/04 10:17:33;;;;;;;50.22;28.55;;;;;;;5.14;74.46;100731.44;5035787;28;20049;-68
2022/12/04 10:20:13;;;;;;;51.35;29.20;;;;;;;4.88;75.14;100735.28;5021632;28;20061;-68
2022/12/04 10:23:15;;;;;;;49.05;27.55;;;;;;;4.86;75.19;100742.97;5050364;28;20084;-68
2022/12/04 10:25:42;;;;;;;50.10;27.98;;;;;;;4.93;75.02;100737.22;5035859;28;20045;-68
2022/12/04 10:28:24;;;;;;;51.38;29.50;;;;;;;4.84;75.53;100736.94;5018270;28;20049;-69
2022/12/04 10:30:54;;;;;;;51.70;28.85;;;;;;;4.76;76.02;100733.97;5030181;28;20684;-68
2022/12/04 10:33:23;;;;;;;;;;;;;;;4.73;76.24;100720.84;5022353;28;20052;-68
2022/12/04 10:35:51;;;;;;;54.33;29.08;;;;;;;4.86;76.12;100723.84;5053768;28;19921;-67
2022/12/04 10:38:24;;;;;;;51.28;28.17;;;;;;;4.87;75.77;100721.91;5054301;28;20068;-68
2022/12/04 10:40:59;;;;;;;51.90;28.60;;;;;;;5.00;75.59;100730.38;5055100;28;20045;-68
2022/12/04 10:43:32;;;;;;;54.28;30.75;;;;;;;4.93;75.07;100729.03;5036592;28;20063;-68
2022/12/04 10:45:59;;;;;;;57.33;31.50;;;;;;;4.95;75.79;100733.09;5033296;28;20045;-69
2022/12/04 10:48:37;;;;;;;50.17;29.58;;;;;;;5.12;75.23;100730.06;5032297;28;20054;-67
2022/12/04 10:51:04;;;;;;;53.38;29.73;;;;;;;5.01;75.35;100723.81;5022465;28;20381;-68
2022/12/04 10:53:34;;;;;;;51.78;29.50;;;;;;;5.07;75.30;100730.09;5035471;28;20049;-68
2022/12/04 10:56:14;;;;;;;52.10;27.45;;;;;;;5.01;75.11;100739.38;5034053;28;20053;-68
2022/12/04 10:58:42;;;;;;;51.63;29.70;;;;;;;5.04;75.24;100727.91;5050632;28;20049;-68
2022/12/04 11:01:14;;;;;;;52.13;28.88;;;;;;;5.24;74.99;100725.94;5034720;28;20520;-68
2022/12/04 11:03:43;;;;;;;53.83;29.00;;;;;;;5.07;74.91;100719.16;5035242;28;20393;-68
2022/12/04 11:06:13;;;;;;;52.50;29.07;;;;;;;5.00;75.50;100713.19;5050093;28;20048;-69
2022/12/04 11:08:43;;;;;;;50.28;28.95;;;;;;;5.12;75.50;100710.97;5035848;28;20114;-68
2022/12/04 11:11:13;;;;;;;50.33;29.35;;;;;;;5.17;75.16;100710.94;5033307;28;20068;-69
2022/12/04 11:13:41;;;;;;;51.42;29.23;;;;;;;5.59;74.15;100716.78;5035409;28;20468;-68
2022/12/04 11:16:31;;;;;;;51.55;29.10;;;;;;;5.48;74.06;100726.13;5035834;28;20056;-68
2022/12/04 11:18:59;;;;;;;53.33;28.10;;;;;;;5.30;74.12;100724.81;5048936;28;20049;-68
2022/12/04 11:21:28;;;;;;;53.22;29.05;;;;;;;5.20;74.92;100711.19;5044139;28;20057;-68
2022/12/04 11:23:57;;;;;;;51.10;28.70;;;;;;;5.29;74.81;100709.53;5036942;28;20052;-69
2022/12/04 11:26:36;;;;;;;50.65;27.92;;;;;;;5.24;74.82;100703.28;5036968;28;20041;-68
2022/12/04 11:29:04;;;;;;;53.17;29.58;;;;;;;5.27;75.20;100703.53;5054843;28;20060;-69
2022/12/04 11:31:32;;;;;;;54.72;29.35;;;;;;;5.25;75.22;100707.63;5033139;28;20046;-69
2022/12/04 11:34:03;;;;;;;48.78;28.35;;;;;;;5.30;74.90;100702.16;5050119;28;20060;-68
2022/12/04 11:36:39;;;;;;;53.30;28.40;;;;;;;5.22;75.12;100708.19;5050155;28;20049;-67
2022/12/04 11:39:19;;;;;;;51.85;28.75;;;;;;;5.24;75.62;100712.28;5033560;28;20049;-66
2022/12/04 11:41:46;;;;;;;50.47;28.42;;;;;;;5.27;75.72;100702.72;5032844;28;20061;-67
2022/12/04 11:44:47;;;;;;;46.60;28.55;;;;;;;5.41;75.16;100711.94;5034770;28;20053;-66
2022/12/04 11:47:17;;;;;;;52.75;29.10;;;;;;;5.28;75.23;100704.34;5033566;28;20381;-67